createdAt,value
2017-08-26T00:01:36.919Z,90.25
2017-08-26T00:04:05.173Z,90.01
2017-08-26T00:06:34.786Z,89.81
2017-08-26T00:09:04.540Z,89.59
2017-08-26T00:11:33.130Z,89.89
2017-08-26T00:14:07.404Z,90.04
2017-08-26T00:16:36.752Z,90.08
2017-08-26T00:19:05.484Z,90.16
2017-08-26T00:21:34.027Z,90.08
2017-08-26T00:24:03.201Z,90.45
2017-08-26T00:26:33.446Z,90.66
2017-08-26T00:29:02.258Z,90.11
2017-08-26T00:31:31.376Z,89.74
2017-08-26T00:34:02.104Z,90.12
2017-08-26T00:36:32.656Z,90.68
2017-08-26T00:39:02.176Z,90.98
2017-08-26T00:41:32.156Z,90.31
2017-08-26T00:44:01.030Z,89.74
2017-08-26T00:46:29.089Z,89.45
2017-08-26T00:49:03.149Z,89.46
2017-08-26T00:51:32.244Z,89.57
2017-08-26T00:54:00.846Z,89.46
2017-08-26T00:56:29.588Z,89.43
2017-08-26T00:58:57.544Z,89.44
2017-08-26T01:01:25.874Z,89.82
2017-08-26T01:03:59.353Z,89.91
2017-08-26T01:06:28.124Z,89.74
2017-08-26T01:09:00.650Z,90.21
2017-08-26T01:11:30.220Z,90.84
2017-08-26T01:13:59.748Z,91.00
2017-08-26T01:16:29.545Z,90.88
2017-08-26T01:18:59.046Z,90.82
2017-08-26T01:21:28.753Z,91.48
2017-08-26T01:23:58.293Z,91.86
2017-08-26T01:26:26.920Z,91.65
2017-08-26T01:28:56.044Z,91.40
2017-08-26T01:31:26.068Z,91.07
2017-08-26T01:33:56.723Z,90.84
2017-08-26T01:36:25.137Z,90.61
2017-08-26T01:38:54.247Z,90.47
2017-08-26T01:41:22.029Z,90.67
2017-08-26T01:43:50.753Z,90.86
2017-08-26T01:46:21.181Z,90.92
2017-08-26T01:48:49.176Z,90.62
2017-08-26T01:51:19.145Z,91.35
2017-08-26T01:53:47.073Z,92.18
2017-08-26T01:56:17.912Z,92.26
2017-08-26T01:58:46.513Z,91.79
2017-08-26T02:01:15.269Z,91.47
2017-08-26T02:03:44.089Z,91.14
2017-08-26T02:06:14.577Z,90.91
2017-08-26T02:08:42.879Z,90.70
2017-08-26T02:11:13.112Z,90.61
2017-08-26T02:13:42.506Z,90.54
2017-08-26T02:16:11.048Z,90.53
2017-08-26T02:18:41.281Z,90.69
2017-08-26T02:21:11.068Z,90.59
2017-08-26T02:23:41.317Z,90.58
2017-08-26T02:26:10.241Z,90.52
2017-08-26T02:28:38.216Z,90.34
2017-08-26T02:31:08.575Z,90.27
2017-08-26T02:33:38.268Z,90.51
2017-08-26T02:36:07.299Z,91.80
2017-08-26T02:38:37.369Z,91.80
2017-08-26T02:41:07.503Z,91.41
2017-08-26T02:43:35.771Z,91.73
2017-08-26T02:46:06.479Z,91.68
2017-08-26T02:48:35.501Z,91.45
2017-08-26T02:51:04.180Z,91.44
2017-08-26T02:53:35.355Z,91.49
2017-08-26T02:56:06.073Z,91.07
2017-08-26T02:58:35.445Z,90.86
2017-08-26T03:01:04.020Z,90.71
2017-08-26T03:03:31.954Z,90.68
2017-08-26T03:06:03.679Z,90.55
2017-08-26T03:08:32.057Z,90.86
2017-08-26T03:11:01.786Z,91.14
2017-08-26T03:13:30.869Z,90.99
2017-08-26T03:15:59.764Z,90.86
2017-08-26T03:18:33.078Z,90.82
2017-08-26T03:21:02.197Z,90.65
2017-08-26T03:23:31.560Z,90.60
2017-08-26T03:26:02.372Z,90.96
2017-08-26T03:28:33.147Z,90.83
2017-08-26T03:31:01.021Z,90.68
2017-08-26T03:33:32.283Z,90.58
2017-08-26T03:36:00.591Z,90.61
2017-08-26T03:38:30.125Z,90.76
2017-08-26T03:43:34.989Z,91.32
2017-08-26T03:46:04.232Z,91.14
2017-08-26T03:48:34.848Z,90.97
2017-08-26T03:51:03.029Z,91.10
2017-08-26T03:53:33.566Z,91.21
2017-08-26T03:56:02.933Z,91.26
2017-08-26T03:58:31.261Z,91.24
2017-08-26T04:01:01.672Z,91.16
2017-08-26T04:03:31.369Z,91.23
2017-08-26T04:06:00.405Z,91.48
2017-08-26T04:08:30.532Z,91.66
2017-08-26T04:11:00.185Z,92.01
2017-08-26T04:13:30.310Z,92.04
2017-08-26T04:16:00.270Z,92.05
2017-08-26T04:18:29.236Z,91.79
2017-08-26T04:20:57.994Z,91.54
2017-08-26T04:23:26.969Z,91.58
2017-08-26T04:25:56.649Z,91.35
2017-08-26T04:28:27.871Z,91.02
2017-08-26T04:31:00.760Z,91.05
2017-08-26T04:33:29.696Z,91.42
2017-08-26T04:35:59.177Z,91.45
2017-08-26T04:38:29.003Z,91.49
2017-08-26T04:40:59.149Z,91.62
2017-08-26T04:43:28.087Z,91.77
2017-08-26T04:45:57.296Z,91.82
2017-08-26T04:48:26.085Z,91.42
2017-08-26T04:50:56.019Z,91.32
2017-08-26T04:53:26.483Z,91.26
2017-08-26T04:55:55.668Z,91.29
2017-08-26T04:58:24.721Z,90.96
2017-08-26T05:00:55.825Z,90.67
2017-08-26T05:03:26.458Z,90.18
2017-08-26T05:05:56.133Z,89.59
2017-08-26T05:08:25.449Z,89.32
2017-08-26T05:10:53.842Z,89.22
2017-08-26T05:13:22.138Z,89.06
2017-08-26T05:15:50.114Z,88.83
2017-08-26T05:18:18.761Z,88.13
2017-08-26T05:20:47.846Z,87.94
2017-08-26T05:23:18.386Z,88.09
2017-08-26T05:25:48.332Z,88.39
2017-08-26T05:28:16.655Z,88.49
2017-08-26T05:30:47.081Z,88.52
2017-08-26T05:33:16.722Z,88.55
2017-08-26T05:35:49.734Z,88.38
2017-08-26T05:38:18.091Z,88.05
2017-08-26T05:40:47.769Z,87.71
2017-08-26T05:43:17.842Z,87.40
2017-08-26T05:45:47.156Z,87.20
2017-08-26T05:48:16.303Z,87.31
2017-08-26T05:50:46.226Z,87.20
2017-08-26T05:53:14.777Z,87.39
2017-08-26T05:55:45.433Z,87.69
2017-08-26T05:58:14.211Z,87.88
2017-08-26T06:00:44.278Z,87.67
2017-08-26T06:03:15.857Z,87.29
2017-08-26T06:05:44.545Z,87.46
2017-08-26T06:08:14.796Z,87.46
2017-08-26T06:10:43.725Z,87.26
2017-08-26T06:13:11.519Z,87.19
2017-08-26T06:15:40.120Z,87.13
2017-08-26T06:18:13.756Z,87.03
2017-08-26T06:20:48.716Z,87.10
2017-08-26T06:23:17.317Z,87.13
2017-08-26T06:25:48.174Z,86.75
2017-08-26T06:28:19.899Z,86.93
2017-08-26T06:30:47.829Z,87.07
2017-08-26T06:33:17.823Z,87.05
2017-08-26T06:35:46.325Z,86.97
2017-08-26T06:38:15.378Z,86.72
2017-08-26T06:40:45.573Z,86.39
2017-08-26T06:43:14.774Z,86.44
2017-08-26T06:45:45.224Z,86.74
2017-08-26T06:48:13.588Z,86.51
2017-08-26T06:50:44.703Z,85.97
2017-08-26T06:53:17.642Z,85.83
2017-08-26T06:55:48.149Z,85.57
2017-08-26T06:58:17.747Z,85.05
2017-08-26T07:00:45.788Z,85.25
2017-08-26T07:03:15.345Z,85.16
2017-08-26T07:05:45.237Z,85.71
2017-08-26T07:08:15.714Z,85.41
2017-08-26T07:10:43.979Z,83.59
2017-08-26T07:13:12.600Z,83.36
2017-08-26T07:15:41.466Z,82.62
2017-08-26T07:18:11.191Z,81.93
2017-08-26T07:20:39.774Z,82.47
2017-08-26T07:23:09.699Z,82.85
2017-08-26T07:25:38.017Z,81.61
2017-08-26T07:28:06.577Z,80.44
2017-08-26T07:30:36.363Z,82.22
2017-08-26T07:33:04.837Z,80.88
2017-08-26T07:35:33.564Z,80.41
2017-08-26T07:38:02.163Z,81.62
2017-08-26T07:40:31.385Z,79.70
2017-08-26T07:42:59.239Z,78.42
2017-08-26T07:45:28.153Z,78.70
2017-08-26T07:47:57.705Z,78.59
2017-08-26T07:50:28.876Z,78.61
2017-08-26T07:52:58.705Z,78.37
2017-08-26T07:55:26.965Z,78.95
2017-08-26T07:57:54.755Z,78.63
2017-08-26T08:00:22.593Z,76.41
2017-08-26T08:02:51.669Z,76.73
2017-08-26T08:05:19.466Z,77.32
2017-08-26T08:07:48.284Z,76.97
2017-08-26T08:10:16.166Z,76.91
2017-08-26T08:12:44.451Z,76.90
2017-08-26T08:15:13.661Z,76.49
2017-08-26T08:17:41.962Z,76.51
2017-08-26T08:20:12.094Z,74.29
2017-08-26T08:22:43.288Z,75.30
2017-08-26T08:25:11.358Z,72.57
2017-08-26T08:27:41.950Z,71.14
2017-08-26T08:30:11.829Z,69.56
2017-08-26T08:32:42.221Z,69.36
2017-08-26T08:35:12.685Z,69.19
2017-08-26T08:37:42.022Z,68.97
2017-08-26T08:40:10.481Z,69.74
2017-08-26T08:42:39.012Z,68.82
2017-08-26T08:45:09.284Z,69.72
2017-08-26T08:47:39.029Z,69.08
2017-08-26T08:50:10.109Z,70.80
2017-08-26T08:52:39.999Z,68.43
2017-08-26T08:55:08.037Z,66.60
2017-08-26T08:57:37.254Z,67.64
2017-08-26T09:00:08.252Z,67.09
2017-08-26T09:02:38.014Z,67.61
2017-08-26T09:05:06.275Z,67.94
2017-08-26T09:07:34.679Z,67.70
2017-08-26T09:10:04.009Z,69.13
2017-08-26T09:12:32.195Z,66.96
2017-08-26T09:15:02.131Z,68.35
2017-08-26T09:17:30.153Z,66.39
2017-08-26T09:20:00.162Z,66.71
2017-08-26T09:22:29.105Z,65.54
2017-08-26T09:24:59.800Z,64.03
2017-08-26T09:27:30.764Z,63.37
2017-08-26T09:30:01.080Z,64.26
2017-08-26T09:32:31.228Z,65.09
2017-08-26T09:35:01.065Z,63.42
2017-08-26T09:37:29.889Z,64.03
2017-08-26T09:39:59.817Z,62.34
2017-08-26T09:42:28.673Z,62.46
2017-08-26T09:44:57.238Z,63.81
2017-08-26T09:47:28.575Z,64.88
2017-08-26T09:49:59.292Z,65.66
2017-08-26T09:52:27.371Z,62.68
2017-08-26T09:54:56.095Z,65.71
2017-08-26T09:57:25.357Z,64.54
2017-08-26T09:59:53.824Z,63.42
2017-08-26T10:02:22.749Z,63.99
2017-08-26T10:04:52.543Z,61.94
2017-08-26T10:07:20.722Z,62.97
2017-08-26T10:09:49.843Z,64.34
2017-08-26T10:12:18.216Z,62.26
2017-08-26T10:14:48.490Z,62.52
2017-08-26T10:17:16.943Z,61.07
2017-08-26T10:19:47.194Z,62.84
2017-08-26T10:22:18.777Z,60.91
2017-08-26T10:24:47.663Z,60.60
2017-08-26T10:27:15.956Z,61.16
2017-08-26T10:29:45.069Z,59.95
2017-08-26T10:32:14.578Z,61.30
2017-08-26T10:34:43.510Z,63.05
2017-08-26T10:37:13.474Z,60.50
2017-08-26T10:39:42.944Z,61.44
2017-08-26T10:42:11.863Z,59.24
2017-08-26T10:44:40.636Z,59.42
2017-08-26T10:47:09.668Z,60.54
2017-08-26T10:49:39.276Z,59.17
2017-08-26T10:52:08.624Z,61.30
2017-08-26T10:54:37.757Z,61.10
2017-08-26T10:57:05.609Z,60.08
2017-08-26T10:59:39.181Z,60.01
2017-08-26T11:02:07.194Z,60.19
2017-08-26T11:04:36.062Z,60.40
2017-08-26T11:07:05.972Z,57.56
2017-08-26T11:09:35.526Z,56.90
2017-08-26T11:12:03.477Z,57.47
2017-08-26T11:14:31.453Z,57.26
2017-08-26T11:17:00.972Z,55.63
2017-08-26T11:19:29.208Z,56.20
2017-08-26T11:21:59.496Z,56.34
2017-08-26T11:24:28.171Z,57.08
2017-08-26T11:26:56.640Z,57.32
2017-08-26T11:29:26.161Z,56.16
2017-08-26T11:31:54.861Z,57.00
2017-08-26T11:34:25.741Z,58.51
2017-08-26T11:36:54.094Z,58.93
2017-08-26T11:39:22.797Z,56.96
2017-08-26T11:41:51.084Z,56.67
2017-08-26T11:44:19.863Z,56.60
2017-08-26T11:46:47.750Z,55.50
2017-08-26T11:49:16.736Z,57.08
2017-08-26T11:51:45.348Z,56.47
2017-08-26T11:54:16.643Z,56.52
2017-08-26T11:56:45.377Z,56.05
2017-08-26T11:59:13.798Z,55.36
2017-08-26T12:01:41.779Z,55.42
2017-08-26T12:04:11.697Z,57.02
2017-08-26T12:06:39.486Z,54.40
2017-08-26T12:09:08.158Z,55.30
2017-08-26T12:11:37.195Z,55.93
2017-08-26T12:14:06.242Z,54.40
2017-08-26T12:16:36.425Z,52.85
2017-08-26T12:19:06.296Z,53.73
2017-08-26T12:21:35.414Z,53.46
2017-08-26T12:24:05.255Z,52.49
2017-08-26T12:26:34.973Z,54.15
2017-08-26T12:29:05.072Z,54.82
2017-08-26T12:31:34.103Z,54.82
2017-08-26T12:34:02.124Z,55.63
2017-08-26T12:36:33.165Z,57.99
2017-08-26T12:39:01.345Z,56.88
2017-08-26T12:41:29.758Z,57.94
2017-08-26T12:44:00.289Z,57.97
2017-08-26T12:46:30.117Z,57.38
2017-08-26T12:48:58.165Z,57.01
2017-08-26T12:51:26.425Z,59.17
2017-08-26T12:53:55.124Z,58.13
2017-08-26T12:56:25.618Z,56.34
2017-08-26T12:58:55.049Z,57.35
2017-08-26T13:01:23.305Z,58.25
2017-08-26T13:03:51.590Z,56.04
2017-08-26T13:06:21.079Z,53.98
2017-08-26T13:08:50.053Z,55.22
2017-08-26T13:11:19.648Z,54.44
2017-08-26T13:13:48.345Z,55.46
2017-08-26T13:16:19.313Z,56.17
2017-08-26T13:21:22.281Z,55.25
2017-08-26T13:23:52.493Z,54.64
2017-08-26T13:26:22.375Z,57.55
2017-08-26T13:28:52.452Z,56.44
2017-08-26T13:31:21.368Z,54.98
2017-08-26T13:33:51.548Z,55.88
2017-08-26T13:36:20.620Z,55.50
2017-08-26T13:38:50.467Z,55.96
2017-08-26T13:41:21.293Z,56.94
2017-08-26T13:43:52.531Z,57.39
2017-08-26T13:46:21.472Z,55.62
2017-08-26T13:48:51.687Z,54.84
2017-08-26T13:51:19.733Z,57.76
2017-08-26T13:53:48.732Z,58.49
2017-08-26T13:56:17.834Z,55.88
2017-08-26T13:58:45.997Z,57.02
2017-08-26T14:01:16.960Z,53.79
2017-08-26T14:03:47.240Z,54.14
2017-08-26T14:06:17.481Z,56.51
2017-08-26T14:08:45.750Z,55.18
2017-08-26T14:11:16.078Z,56.89
2017-08-26T14:13:45.715Z,57.54
2017-08-26T14:16:14.534Z,56.10
2017-08-26T14:18:43.744Z,57.19
2017-08-26T14:21:13.573Z,56.19
2017-08-26T14:23:42.678Z,57.16
2017-08-26T14:26:11.440Z,56.92
2017-08-26T14:28:40.794Z,56.33
2017-08-26T14:31:09.020Z,56.08
2017-08-26T14:33:38.245Z,55.00
2017-08-26T14:36:07.128Z,57.93
2017-08-26T14:38:35.532Z,56.70
2017-08-26T14:41:06.256Z,56.70
2017-08-26T14:43:35.288Z,58.41
2017-08-26T14:46:03.469Z,56.76
2017-08-26T14:48:31.692Z,58.48
2017-08-26T14:51:01.159Z,57.42
2017-08-26T14:53:31.245Z,58.18
2017-08-26T14:56:00.925Z,58.74
2017-08-26T14:58:30.520Z,59.97
2017-08-26T15:00:58.697Z,60.12
2017-08-26T15:03:28.541Z,60.02
2017-08-26T15:05:58.554Z,60.19
2017-08-26T15:08:27.408Z,60.82
2017-08-26T15:10:56.596Z,60.51
2017-08-26T15:13:25.402Z,59.88
2017-08-26T15:15:54.593Z,60.05
2017-08-26T15:18:24.687Z,60.57
2017-08-26T15:20:52.931Z,61.51
2017-08-26T15:23:23.166Z,62.17
2017-08-26T15:25:52.319Z,62.42
2017-08-26T15:28:20.839Z,62.16
2017-08-26T15:30:49.675Z,61.14
2017-08-26T15:33:19.127Z,59.80
2017-08-26T15:35:46.989Z,60.52
2017-08-26T15:38:19.392Z,60.00
2017-08-26T15:40:48.268Z,60.44
2017-08-26T15:43:16.413Z,59.50
2017-08-26T15:45:46.087Z,60.51
2017-08-26T15:48:14.895Z,65.37
2017-08-26T15:50:44.024Z,62.86
2017-08-26T15:53:14.799Z,61.86
2017-08-26T15:55:45.471Z,61.27
2017-08-26T15:58:15.205Z,63.06
2017-08-26T16:00:44.291Z,62.55
2017-08-26T16:03:14.222Z,62.36
2017-08-26T16:05:43.991Z,62.46
2017-08-26T16:08:13.147Z,62.37
2017-08-26T16:10:41.077Z,63.05
2017-08-26T16:13:09.578Z,63.24
2017-08-26T16:15:38.666Z,63.49
2017-08-26T16:18:06.956Z,63.77
2017-08-26T16:20:36.662Z,64.09
2017-08-26T16:23:04.606Z,64.32
2017-08-26T16:25:35.211Z,64.85
2017-08-26T16:28:06.396Z,65.93
2017-08-26T16:30:35.354Z,66.57
2017-08-26T16:33:03.673Z,67.36
2017-08-26T16:35:35.081Z,68.02
2017-08-26T16:38:03.639Z,67.96
2017-08-26T16:40:33.724Z,68.11
2017-08-26T16:43:02.806Z,67.76
2017-08-26T16:45:31.064Z,66.64
2017-08-26T16:48:02.925Z,67.67
2017-08-26T16:50:30.955Z,67.04
2017-08-26T16:52:58.754Z,67.34
2017-08-26T16:55:27.562Z,67.45
2017-08-26T16:57:56.860Z,66.29
2017-08-26T17:00:26.833Z,66.33
2017-08-26T17:02:55.626Z,66.46
2017-08-26T17:05:24.327Z,66.42
2017-08-26T17:07:54.373Z,67.02
2017-08-26T17:10:25.119Z,67.03
2017-08-26T17:12:54.450Z,67.04
2017-08-26T17:15:23.550Z,67.24
2017-08-26T17:17:51.810Z,68.20
2017-08-26T17:20:20.872Z,67.62
2017-08-26T17:22:51.471Z,67.40
2017-08-26T17:25:20.732Z,69.11
2017-08-26T17:27:48.762Z,69.31
2017-08-26T17:30:17.308Z,69.21
2017-08-26T17:32:45.306Z,69.41
2017-08-26T17:35:15.037Z,70.06
2017-08-26T17:37:44.144Z,70.00
2017-08-26T17:40:13.396Z,70.28
2017-08-26T17:42:45.242Z,71.00
2017-08-26T17:45:14.261Z,71.01
2017-08-26T17:47:43.978Z,72.16
2017-08-26T17:50:14.663Z,74.37
2017-08-26T17:52:45.186Z,75.89
2017-08-26T17:55:15.099Z,76.95
2017-08-26T17:57:43.985Z,77.41
2017-08-26T18:00:12.565Z,76.08
2017-08-26T18:02:40.625Z,76.93
2017-08-26T18:05:08.689Z,79.80
2017-08-26T18:07:37.864Z,79.60
2017-08-26T18:10:08.583Z,79.39
2017-08-26T18:12:37.531Z,79.19
2017-08-26T18:15:07.389Z,79.95
2017-08-26T18:17:36.527Z,80.81
2017-08-26T18:20:04.817Z,81.06
2017-08-26T18:22:32.860Z,81.89
2017-08-26T18:25:01.756Z,83.25
2017-08-26T18:27:29.884Z,83.63
2017-08-26T18:29:57.796Z,84.07
2017-08-26T18:32:27.081Z,84.12
2017-08-26T18:34:55.105Z,83.60
2017-08-26T18:37:24.528Z,85.88
2017-08-26T18:39:52.583Z,85.29
2017-08-26T18:42:22.844Z,82.65
2017-08-26T18:44:52.719Z,81.90
2017-08-26T18:47:21.883Z,80.78
2017-08-26T18:49:51.054Z,79.83
2017-08-26T18:52:19.809Z,79.12
2017-08-26T18:54:49.043Z,78.33
2017-08-26T18:57:18.290Z,77.99
2017-08-26T18:59:46.175Z,79.27
2017-08-26T19:02:15.910Z,80.74
2017-08-26T19:04:46.042Z,81.17
2017-08-26T19:07:17.181Z,81.24
2017-08-26T19:09:55.149Z,81.35
2017-08-26T19:12:25.632Z,81.73
2017-08-26T19:14:54.735Z,83.36
2017-08-26T19:17:23.456Z,83.65
2017-08-26T19:19:53.770Z,84.45
2017-08-26T19:22:23.160Z,85.26
2017-08-26T19:24:52.429Z,85.87
2017-08-26T19:27:20.599Z,86.35
2017-08-26T19:29:50.554Z,86.53
2017-08-26T19:32:19.319Z,86.86
2017-08-26T19:34:49.658Z,87.72
2017-08-26T19:37:18.005Z,87.90
2017-08-26T19:39:48.340Z,88.12
2017-08-26T19:42:18.656Z,88.27
2017-08-26T19:44:48.236Z,88.26
2017-08-26T19:47:16.104Z,88.18
2017-08-26T19:49:46.532Z,88.10
2017-08-26T19:52:17.528Z,88.22
2017-08-26T19:54:46.828Z,88.17
2017-08-26T19:57:16.843Z,88.33
2017-08-26T19:59:45.522Z,88.28
2017-08-26T20:02:16.895Z,88.12
2017-08-26T20:04:46.026Z,88.22
2017-08-26T20:07:17.756Z,88.80
2017-08-26T20:09:46.205Z,88.86
2017-08-26T20:12:15.004Z,88.96
2017-08-26T20:14:45.155Z,88.94
2017-08-26T20:17:14.967Z,89.17
2017-08-26T20:19:45.073Z,89.22
2017-08-26T20:22:14.877Z,89.24
2017-08-26T20:24:45.706Z,89.16
2017-08-26T20:27:15.807Z,89.42
2017-08-26T20:29:44.943Z,89.55
2017-08-26T20:34:48.840Z,89.79
2017-08-26T20:37:18.342Z,89.91
2017-08-26T20:39:50.489Z,89.96
2017-08-26T20:42:19.033Z,90.06
2017-08-26T20:44:48.185Z,90.23
2017-08-26T20:47:16.757Z,90.31
2017-08-26T20:49:45.534Z,90.28
2017-08-26T20:52:15.574Z,90.41
2017-08-26T20:54:45.398Z,90.40
2017-08-26T20:57:15.348Z,90.30
2017-08-26T20:59:47.038Z,90.20
2017-08-26T21:02:14.965Z,90.51
2017-08-26T21:04:43.267Z,90.62
2017-08-26T21:07:12.770Z,90.69
2017-08-26T21:09:41.905Z,91.02
2017-08-26T21:12:13.315Z,91.31
2017-08-26T21:14:42.045Z,91.43
2017-08-26T21:17:10.138Z,91.16
2017-08-26T21:19:40.281Z,91.29
2017-08-26T21:22:08.610Z,91.52
2017-08-26T21:24:37.427Z,91.61
2017-08-26T21:27:05.638Z,91.52
2017-08-26T21:29:34.740Z,91.35
2017-08-26T21:32:04.671Z,91.16
2017-08-26T21:34:34.939Z,91.29
2017-08-26T21:37:02.701Z,91.23
2017-08-26T21:39:31.182Z,91.18
2017-08-26T21:42:01.958Z,91.12
2017-08-26T21:44:30.903Z,91.11
2017-08-26T21:47:01.297Z,91.20
2017-08-26T21:49:32.231Z,91.05
2017-08-26T21:52:01.941Z,91.13
2017-08-26T21:54:31.353Z,91.27
2017-08-26T21:56:59.246Z,91.35
2017-08-26T21:59:28.572Z,91.43
2017-08-26T22:01:57.010Z,91.14
2017-08-26T22:04:26.648Z,90.09
2017-08-26T22:06:55.044Z,89.71
2017-08-26T22:09:26.389Z,90.27
2017-08-26T22:11:54.416Z,90.74
2017-08-26T22:14:22.870Z,91.39
2017-08-26T22:16:51.713Z,91.70
2017-08-26T22:19:20.565Z,91.79
2017-08-26T22:21:49.422Z,92.14
2017-08-26T22:24:18.346Z,92.24
2017-08-26T22:26:46.593Z,92.27
2017-08-26T22:29:15.528Z,92.35
2017-08-26T22:31:43.572Z,92.45
2017-08-26T22:34:12.425Z,92.43
2017-08-26T22:36:44.097Z,92.41
2017-08-26T22:39:12.023Z,92.41
2017-08-26T22:41:43.637Z,92.36
2017-08-26T22:44:13.556Z,92.43
2017-08-26T22:46:41.929Z,92.46
2017-08-26T22:49:11.920Z,92.48
2017-08-26T22:51:41.319Z,92.54
2017-08-26T22:54:09.929Z,92.52
2017-08-26T22:56:38.857Z,92.58
2017-08-26T22:59:07.524Z,92.64
2017-08-26T23:01:35.767Z,92.68
2017-08-26T23:04:06.399Z,92.78
2017-08-26T23:06:34.378Z,92.81
2017-08-26T23:09:03.351Z,92.86
2017-08-26T23:11:32.986Z,92.86
2017-08-26T23:14:02.836Z,92.92
2017-08-26T23:16:32.068Z,92.96
2017-08-26T23:19:01.044Z,92.97
2017-08-26T23:21:29.917Z,92.98
2017-08-26T23:23:59.826Z,93.04
2017-08-26T23:26:28.512Z,93.11
2017-08-26T23:28:57.693Z,93.23
2017-08-26T23:31:26.960Z,93.39
2017-08-26T23:33:55.972Z,93.44
2017-08-26T23:36:25.184Z,93.46
2017-08-26T23:38:54.320Z,93.39
2017-08-26T23:41:23.491Z,93.38
2017-08-26T23:43:52.315Z,93.47
2017-08-26T23:46:21.033Z,93.56
2017-08-26T23:48:49.614Z,93.61
2017-08-26T23:51:18.679Z,93.60
2017-08-26T23:53:49.285Z,93.59
2017-08-26T23:56:18.132Z,93.66
2017-08-26T23:58:47.015Z,93.71
